Masaryktown, Florida
Current Conditions -  °F | °C
As of 7:53 AM on Thursday 23 Oct 2014 (Local Time) from KBKV Reporting Station
Clear Clear  
Wind Chill: 57°   Ceiling: Unl
Heat Index: 57°   Visibility: 10mi
Dew Point: 52°   Wind: 6mph
Humidity: 83%   Direction: 30°NNE
Pressure: 30.01"   Gusts: NA
Location:  28.4822°N, 82.4333°W
Report Text: KBKV 231153Z 03005KT 10SM CLR 14/11 A3001 RMK AO2 SLP162 T01390111 10172 20139 53008
Loading
Personal Weather Stations






























Interactive Weather Map
Tropical Storm Tracking
New forecast layout! Learn more

10-Day Weather Forecast

Advertisements
Track Severe Weather on mobile